This is the latest recevied weather packets stored in our database for station/object K7GFH-13. If no packets are shown the sender has not sent any weather packets the latest 10 day(s).
| Time | Temp. | Humidity | Pressure | Rain* | Wind** | Luminosity | Snow |
|---|---|---|---|---|---|---|---|
| 1777793842 | 13.33° C | 92% | 1014.5 hPa | 0 mm | - | 0 W/m² | - |
| 1777792940 | 12.78° C | 92% | 1014.5 hPa | 0 mm | - | 0 W/m² | - |
| 1777792036 | 13.33° C | 91% | 1014.6 hPa | 0 mm | - | 0 W/m² | - |
| 1777791135 | 13.33° C | 91% | 1014.6 hPa | 0 mm | - | 0 W/m² | - |
| 1777790231 | 13.89° C | 88% | 1014.7 hPa | 0 mm | - | 0 W/m² | - |
| 1777789328 | 13.89° C | 89% | 1014.5 hPa | 0 mm | - | 0 W/m² | - |
| 1777788422 | 15° C | 86% | 1014.6 hPa | 0 mm | - | 0 W/m² | - |
| 1777787520 | 15° C | 85% | 1014.7 hPa | 0 mm | - | 0 W/m² | - |
| 1777786616 | 15.56° C | 81% | 1014.7 hPa | 0 mm | - | 0 W/m² | - |
| 1777785713 | 15.56° C | 82% | 1014.3 hPa | 0 mm | - | 0 W/m² | - |
| 1777784809 | 16.11° C | 82% | 1014.4 hPa | 0 mm | - | 0 W/m² | - |
| 1777783906 | 16.11° C | 81% | 1014.5 hPa | 0 mm | - | 0 W/m² | - |
| 1777783002 | 17.22° C | 77% | 1014.6 hPa | 0 mm | - | 0 W/m² | - |
| 1777782098 | 17.78° C | 76% | 1014.5 hPa | 0 mm | - | 0 W/m² | - |
| 1777781195 | 17.22° C | 77% | 1014.8 hPa | 0 mm | - | 0 W/m² | - |
| 1777780293 | 16.67° C | 79% | 1014.6 hPa | 0 mm | - | 0 W/m² | - |
| 1777779390 | 16.67° C | 80% | 1014.7 hPa | 0 mm | - | 0 W/m² | - |
| 1777778490 | 17.78° C | 75% | 1014.8 hPa | 0 mm | - | 3 W/m² | - |
| 1777777586 | 17.78° C | 76% | 1014.8 hPa | 0 mm | - | 7 W/m² | - |
| 1777776684 | 18.33° C | 73% | 1014.6 hPa | 0 mm | - | 15 W/m² | - |
| 1777775780 | 18.89° C | 69% | 1014.7 hPa | 0 mm | - | 30 W/m² | - |
| 1777774880 | 19.44° C | 67% | 1014.3 hPa | 0 mm | - | 47 W/m² | - |
| 1777773977 | 19.44° C | 67% | 1014.1 hPa | 0 mm | - | 62 W/m² | - |
| 1777772170 | 20.56° C | 61% | 1013.6 hPa | 0 mm | - | 97 W/m² | - |
| 1777771267 | 20.56° C | 62% | 1013.7 hPa | 0 mm | - | 113 W/m² | - |
* Rain latest hour (hover to see other rain measurements)
** Current wind speed in m/s (hover to see current wind gust speed)